Dunlap Lake, Illinois
Current Conditions -  °F | °C
As of 12:50 PM on Sunday 23 Nov 2014 (Local Time) from KALN Reporting Station
Moderate Rain Moderate Rain  
Wind Chill: 12°   Ceiling: 700
Heat Index: 12°   Visibility: 4mi
Dew Point: 11°   Wind: 15mph
Humidity: 94%   Direction: 140°SE
Pressure: 29.47"   Gusts: NA
Location:  38.8031°N, 89.9742°W
Report Text: KALN 231850Z 14013KT 4SM RA BR OVC007 12/11 A2947
Loading
Personal Weather Stations






























Interactive Weather Map New forecast layout! Learn more

10-Day Weather Forecast

Advertisements
Track Severe Weather on mobile